Austin Reinauer — WCX8055 — position and weather

sailwx.info

Track history (hours):
 
Tides and Currents Weather Stations Pressure Air Temp Water Temp Dewpoint Dewpoint Depression Visibility Wind Speed Wind Dir Waves Ship Positions

Austin Reinauer

Owner: REINAUER TRANSPORTATION CO, LP, STATEN ISLAND, NY. More information available from US FCC via Universal Licensing System and Coast Guard Vessel Documentation Center.

Last reported at 2016-Sep-27 00:32 UTC. Time now 2016-Sep-27 03:41 UTC.
Position N 40°39' W 074°07'.

Length 33 m; draft 6.7 m.

Type: Tug. MMSI: 366739920.

Date/timePositionNaut miles runAvg speedWind from/ knotsBaromVisibWave heightAir tempDewpointWater temp
2016-Sep-27 00:32N 40°39' W 074°07'1 0.3
2016-Sep-26 20:31N 40°38' W 074°08'0 0.0
2016-Sep-26 19:31N 40°38' W 074°08'0 0.0
2016-Sep-26 15:33N 40°38' W 074°08'0 0.0
2016-Sep-26 13:33N 40°38' W 074°08'0 0.0
2016-Sep-26 11:33N 40°38' W 074°08'0 0.0
2016-Sep-26 08:33N 40°38' W 074°08'184 7.4
2016-Sep-25 07:33N 42°15' W 070°38'20 6.7
2016-Sep-25 04:32N 42°23' W 071°03'0 0.0
2016-Sep-25 00:32N 42°23' W 071°03'0 0.0
2016-Sep-24 22:32N 42°23' W 071°03'0 0.0
2016-Sep-24 21:23N 42°23' W 071°03'0 0.0
2016-Sep-24 19:32N 42°23' W 071°03'0 0.0
2016-Sep-24 18:32N 42°23' W 071°03'0 0.0
2016-Sep-24 17:32N 42°23' W 071°03'0 0.0
2016-Sep-24 16:32N 42°23' W 071°03'0 0.0
2016-Sep-24 14:32N 42°23' W 071°03'0 0.0
2016-Sep-24 12:33N 42°23' W 071°03'5 2.5
2016-Sep-24 10:33N 42°20' W 070°58'1 1.2
2016-Sep-24 09:33N 42°20' W 070°57'38 2.7
2016-Sep-23 19:25N 41°47' W 071°22'0 0.0
2016-Sep-23 17:31N 41°47' W 071°22'0 0.0
2016-Sep-23 16:32N 41°47' W 071°22'0 0.0
2016-Sep-23 15:32N 41°47' W 071°22'0 0.0
2016-Sep-23 13:25N 41°47' W 071°22'0 0.0
2016-Sep-23 09:25N 41°47' W 071°22'0 0.0
2016-Sep-23 06:19N 41°47' W 071°22'0 0.0
2016-Sep-23 04:30N 41°47' W 071°22'0 0.0
2016-Sep-23 03:30N 41°47' W 071°22'0 0.0
2016-Sep-23 02:16N 41°47' W 071°22'3 4.6
2016-Sep-23 01:34N 41°44' W 071°22'101 7.8
2016-Sep-22 12:34N 40°37' W 073°02'53 6.6
2016-Sep-22 04:31N 40°38' W 074°12'0 0.0
2016-Sep-22 03:31N 40°38' W 074°12'0 0.0
2016-Sep-22 00:31N 40°38' W 074°12'0 0.0
2016-Sep-21 23:31N 40°38' W 074°12'0 0.0
2016-Sep-21 22:31N 40°38' W 074°12'0 0.0
2016-Sep-21 19:24N 40°38' W 074°12'0 0.0
2016-Sep-21 16:33N 40°38' W 074°12'0 0.0
2016-Sep-21 09:32N 40°38' W 074°12'0 0.0
2016-Sep-21 08:31N 40°38' W 074°12'0 0.0
2016-Sep-21 05:33N 40°38' W 074°12'0 0.0
2016-Sep-21 03:33N 40°38' W 074°12'3 2.9
2016-Sep-21 02:33N 40°39' W 074°08'19 2.1
2016-Sep-20 17:16N 40°49' W 073°47'0 0.1
2016-Sep-20 14:28N 40°49' W 073°47'0 0.0
2016-Sep-20 13:25N 40°49' W 073°47'6 0.2
2016-Sep-19 03:33N 40°48' W 073°55'7 6.5
2016-Sep-19 02:34N 40°42' W 073°59'4 2.0
2016-Sep-19 00:34N 40°39' W 074°03'0 0.0
2016-Sep-18 19:33N 40°39' W 074°03'11 0.7
2016-Sep-18 02:28N 40°33' W 074°15'0 0.0
2016-Sep-17 09:27N 40°33' W 074°15'0 0.0
2016-Sep-17 08:32N 40°33' W 074°15'4 4.5
2016-Sep-17 07:33N 40°37' W 074°12'16 8.1
2016-Sep-17 05:33N 40°47' W 073°56'  
Track history (hours):
 
Tides and Currents Weather Stations Pressure Air Temp Water Temp Dewpoint Dewpoint Depression Visibility Wind Speed Wind Dir Waves Ship Positions

Austin Reinauer

Owner: REINAUER TRANSPORTATION CO, LP, STATEN ISLAND, NY. More information available from US FCC via Universal Licensing System and Coast Guard Vessel Documentation Center.

Last reported at 2016-Sep-27 00:32 UTC. Time now 2016-Sep-27 03:41 UTC.
Position N 40°39' W 074°07'.

Length 33 m; draft 6.7 m.

Type: Tug. MMSI: 366739920.

Date/timePositionNaut miles runAvg speedWind from/ knotsBaromVisibWave heightAir tempDewpointWater temp
2016-Sep-27 00:32N 40°39' W 074°07'1 0.3
2016-Sep-26 20:31N 40°38' W 074°08'0 0.0
2016-Sep-26 19:31N 40°38' W 074°08'0 0.0
2016-Sep-26 15:33N 40°38' W 074°08'0 0.0
2016-Sep-26 13:33N 40°38' W 074°08'0 0.0
2016-Sep-26 11:33N 40°38' W 074°08'0 0.0
2016-Sep-26 08:33N 40°38' W 074°08'184 7.4
2016-Sep-25 07:33N 42°15' W 070°38'20 6.7
2016-Sep-25 04:32N 42°23' W 071°03'0 0.0
2016-Sep-25 00:32N 42°23' W 071°03'0 0.0
2016-Sep-24 22:32N 42°23' W 071°03'0 0.0
2016-Sep-24 21:23N 42°23' W 071°03'0 0.0
2016-Sep-24 19:32N 42°23' W 071°03'0 0.0
2016-Sep-24 18:32N 42°23' W 071°03'0 0.0
2016-Sep-24 17:32N 42°23' W 071°03'0 0.0
2016-Sep-24 16:32N 42°23' W 071°03'0 0.0
2016-Sep-24 14:32N 42°23' W 071°03'0 0.0
2016-Sep-24 12:33N 42°23' W 071°03'5 2.5
2016-Sep-24 10:33N 42°20' W 070°58'1 1.2
2016-Sep-24 09:33N 42°20' W 070°57'38 2.7
2016-Sep-23 19:25N 41°47' W 071°22'0 0.0
2016-Sep-23 17:31N 41°47' W 071°22'0 0.0
2016-Sep-23 16:32N 41°47' W 071°22'0 0.0
2016-Sep-23 15:32N 41°47' W 071°22'0 0.0
2016-Sep-23 13:25N 41°47' W 071°22'0 0.0
2016-Sep-23 09:25N 41°47' W 071°22'0 0.0
2016-Sep-23 06:19N 41°47' W 071°22'0 0.0
2016-Sep-23 04:30N 41°47' W 071°22'0 0.0
2016-Sep-23 03:30N 41°47' W 071°22'0 0.0
2016-Sep-23 02:16N 41°47' W 071°22'3 4.6
2016-Sep-23 01:34N 41°44' W 071°22'101 7.8
2016-Sep-22 12:34N 40°37' W 073°02'53 6.6
2016-Sep-22 04:31N 40°38' W 074°12'0 0.0
2016-Sep-22 03:31N 40°38' W 074°12'0 0.0
2016-Sep-22 00:31N 40°38' W 074°12'0 0.0
2016-Sep-21 23:31N 40°38' W 074°12'0 0.0
2016-Sep-21 22:31N 40°38' W 074°12'0 0.0
2016-Sep-21 19:24N 40°38' W 074°12'0 0.0
2016-Sep-21 16:33N 40°38' W 074°12'0 0.0
2016-Sep-21 09:32N 40°38' W 074°12'0 0.0
2016-Sep-21 08:31N 40°38' W 074°12'0 0.0
2016-Sep-21 05:33N 40°38' W 074°12'0 0.0
2016-Sep-21 03:33N 40°38' W 074°12'3 2.9
2016-Sep-21 02:33N 40°39' W 074°08'19 2.1
2016-Sep-20 17:16N 40°49' W 073°47'0 0.1
2016-Sep-20 14:28N 40°49' W 073°47'0 0.0
2016-Sep-20 13:25N 40°49' W 073°47'6 0.2
2016-Sep-19 03:33N 40°48' W 073°55'7 6.5
2016-Sep-19 02:34N 40°42' W 073°59'4 2.0
2016-Sep-19 00:34N 40°39' W 074°03'0 0.0
2016-Sep-18 19:33N 40°39' W 074°03'11 0.7
2016-Sep-18 02:28N 40°33' W 074°15'0 0.0
2016-Sep-17 09:27N 40°33' W 074°15'0 0.0
2016-Sep-17 08:32N 40°33' W 074°15'4 4.5
2016-Sep-17 07:33N 40°37' W 074°12'16 8.1
2016-Sep-17 05:33N 40°47' W 073°56'  

Dump ship's entire track history